Latest Weather Observations for Daly Waters

IDD60801

Issued at 4:51 pm CST Thursday 18 July 2024 (issued every 10 minutes, with the page automatically refreshed every 10 minutes)

About weather observations | Map of weather stations | Latest weather observations for NT | Other Formats
Station Details ID: 014626 Name: DALY WATERS AIRSTRIP Lat: -16.26 Lon: 133.38 Height: 209.84 m
Data from the previous 72 hours. | See also: Recent months at Daly Waters
Date/Time
CST
Temp
°C
App
Temp
°C
Dew
Point
°C
Rel
Hum
%
Delta-T
°C
Wind Press
QNH
hPa
Press
MSL
hPa
Rain since
9am
mm
Dir  Spd
km/h
Gust
km/h
Spd
kts
Gust
kts
18/04:30pm 23.7 20.2 -1.3 19 11.2 SE 7 15 4 8 1018.7 1018.0 0.0
18/04:00pm 24.2 20.0 -0.9 19 11.4 E 11 20 6 11 1018.8 1018.1 0.0
18/03:30pm 23.8 19.6 -1.2 19 11.2 ESE 11 19 6 10 1018.9 1018.2 0.0
18/03:00pm 23.4 19.2 -0.8 20 10.9 ESE 11 20 6 11 1019.3 1018.6 0.0
18/02:30pm 23.9 20.5 -0.4 20 11.1 SE 7 20 4 11 1019.8 1019.1 0.0
18/02:00pm 23.1 18.9 -1.1 20 10.9 ESE 11 20 6 11 1020.3 1019.6 0.0
18/01:30pm 21.9 17.6 -2.0 20 10.4 E 11 19 6 10 1020.8 1020.1 0.0
18/01:00pm 21.7 17.8 -1.6 21 10.2 ESE 9 20 5 11 1021.6 1020.9 0.0
18/12:30pm 21.8 17.6 -0.8 22 10.0 E 11 26 6 14 1022.2 1021.6 0.0
18/12:00pm 20.5 15.6 -0.7 24 9.3 E 15 26 8 14 1022.8 1022.2 0.0
18/11:30am 19.7 14.7 -0.9 25 9.0 E 15 24 8 13 1023.3 1022.7 0.0
18/11:00am 19.1 13.4 -0.8 26 8.7 E 19 32 10 17 1023.7 1023.0 0.0
18/10:30am 17.9 12.6 -0.8 28 8.0 E 17 28 9 15 1023.9 1023.2 0.0
18/10:00am 17.0 10.4 -0.2 31 7.5 ESE 24 39 13 21 1024.0 1023.3 0.0
18/09:30am 15.9 10.4 0.5 35 6.7 E 19 35 10 19 1023.9 1023.2 0.0
18/09:00am 14.6 8.8 0.1 37 6.2 E 20 33 11 18 1023.9 1023.2 0.0
18/08:30am 13.3 9.0 0.7 42 5.4 ESE 13 22 7 12 1023.3 1022.7 0.0
18/08:00am 11.3 8.1 1.0 49 4.3 ESE 7 17 4 9 1023.1 1022.5 0.0
18/07:30am 8.7 5.5 0.9 58 3.2 SE 7 11 4 6 1022.6 1022.0 0.0
18/07:00am 7.4 4.4 0.6 62 2.7 SE 6 9 3 5 1022.3 1021.7 0.0
18/06:30am 7.3 3.8 1.0 64 2.5 SE 9 11 5 6 1021.7 1021.0 0.0
18/06:00am 7.9 4.9 0.9 61 2.8 SE 6 9 3 5 1021.4 1020.7 0.0
18/05:30am 8.9 5.7 0.9 57 3.3 SE 7 9 4 5 1021.2 1020.5 0.0
18/05:00am 9.7 6.6 1.1 55 3.6 ESE 7 13 4 7 1021.1 1020.4 0.0
18/04:30am 10.3 6.8 1.4 54 3.7 ESE 9 13 5 7 1020.5 1019.8 0.0
18/04:00am 10.1 6.7 1.7 56 3.6 SE 9 15 5 8 1020.4 1019.7 0.0
18/03:30am 10.4 7.4 2.0 56 3.6 SE 7 15 4 8 1020.3 1019.6 0.0
18/03:00am 10.7 7.7 2.0 55 3.7 SE 7 15 4 8 1020.3 1019.6 0.0
18/02:30am 10.3 5.5 2.7 59 3.3 SSE 17 20 9 11 1020.2 1019.5 0.0
18/02:00am 9.6 5.6 2.9 63 2.9 SSE 13 17 7 9 1020.4 1019.7 0.0
18/01:30am 9.5 6.7 3.0 64 2.8 SSE 7 9 4 5 1020.6 1019.9 0.0
18/01:00am 10.2 7.0 3.0 61 3.1 SSE 9 11 5 6 1020.7 1020.0 0.0
18/12:30am 10.6 7.8 3.2 60 3.2 SSE 7 11 4 6 1020.9 1020.2 0.0
18/12:00am 11.7 8.9 3.2 56 3.8 SSE 7 13 4 7 1020.9 1020.2 0.0
 
Date/Time
CST
Temp
°C
App
Temp
°C
Dew
Point
°C
Rel
Hum
%
Delta-T
°C
Wind Press
QNH
hPa
Press
MSL
hPa
Rain since
9am
mm
Dir  Spd
km/h
Gust
km/h
Spd
kts
Gust
kts
17/11:30pm 12.7 8.8 3.4 53 4.2 SSE 13 20 7 11 1020.9 1020.2 0.0
17/11:00pm 13.1 9.9 3.2 51 4.5 SE 9 13 5 7 1021.2 1020.5 0.0
17/10:30pm 14.4 10.5 3.2 47 5.1 SSE 13 20 7 11 1021.3 1020.6 0.0
17/10:00pm 15.2 10.9 3.0 44 5.6 SSE 15 22 8 12 1021.2 1020.5 0.0
17/09:30pm 15.9 11.2 3.0 42 5.9 SSE 17 24 9 13 1021.0 1020.3 0.0
17/09:00pm 16.3 11.9 2.7 40 6.2 SSE 15 22 8 12 1020.7 1020.0 0.0
17/08:30pm 16.0 12.4 3.1 42 5.9 SSE 11 20 6 11 1020.2 1019.5 0.0
17/08:00pm 12.3 9.7 3.3 54 4.0 SSE 6 9 3 5 1019.7 1019.0 0.0
17/07:30pm 12.7 10.0 2.6 50 4.5 ESE 6 6 3 3 1019.3 1018.6 0.0
17/07:00pm 16.0 13.6 2.1 39 6.3 ESE 4 7 2 4 1019.1 1018.4 0.0
17/06:30pm 18.6 15.5 1.6 32 7.7 SE 7 11 4 6 1018.7 1018.0 0.0
17/06:00pm 20.8 16.9 1.1 27 9.0 SE 11 19 6 10 1018.3 1017.7 0.0
17/05:30pm 22.0 17.8 1.6 26 9.5 SSE 13 24 7 13 1018.1 1017.5 0.0
17/05:00pm 22.5 18.4 2.1 26 9.7 ESE 13 24 7 13 1017.9 1017.3 0.0
17/04:30pm 22.7 18.2 2.2 26 9.7 SE 15 24 8 13 1017.8 1017.2 0.0
17/04:00pm 23.4 18.8 1.7 24 10.3 SE 15 22 8 12 1018.0 1017.4 0.0
17/03:30pm 22.7 17.4 1.7 25 9.9 SE 19 30 10 16 1018.1 1017.5 0.0
17/03:00pm 23.3 19.2 2.2 25 10.1 SE 13 26 7 14 1018.3 1017.7 0.0
17/02:30pm 22.6 17.3 2.1 26 9.7 SSE 19 32 10 17 1018.7 1018.0 0.0
17/02:00pm 22.9 18.2 3.4 28 9.5 SE 17 30 9 16 1019.2 1018.5 0.0
17/01:30pm 21.9 16.8 3.1 29 9.0 SSE 19 30 10 16 1019.9 1019.2 0.0
17/01:00pm 21.8 17.0 2.5 28 9.2 SE 17 30 9 16 1020.5 1019.8 0.0
17/12:30pm 21.9 16.6 3.1 29 9.0 SE 20 33 11 18 1021.3 1020.6 0.0
17/12:00pm 21.1 15.7 2.4 29 8.8 SE 20 33 11 18 1022.0 1021.4 0.0
17/11:30am 20.5 15.2 2.8 31 8.4 SE 20 37 11 20 1022.3 1021.7 0.0
17/11:00am 20.1 14.8 2.9 32 8.1 ESE 20 37 11 20 1022.7 1022.1 0.0
17/10:30am 19.4 14.1 3.2 34 7.6 ESE 20 30 11 16 1022.9 1022.3 0.0
17/10:00am 18.8 13.8 3.4 36 7.3 ESE 19 32 10 17 1023.0 1022.4 0.0
17/09:30am 17.4 12.7 3.3 39 6.6 SE 17 30 9 16 1023.0 1022.4 0.0
17/09:00am 15.7 10.5 3.5 44 5.6 ESE 20 32 11 17 1022.6 1022.0 0.0
17/08:30am 13.9 9.7 3.9 51 4.6 SE 15 24 8 13 1022.3 1021.7 0.0
17/08:00am 10.5 8.0 4.6 67 2.7 SE 7 17 4 9 1021.8 1021.1 0.0
17/07:30am 6.6 4.1 3.8 82 1.2 SSE 6 9 3 5 1021.4 1020.7 0.0
17/07:00am 5.1 2.5 3.1 87 0.8 SSE 6 7 3 4 1021.1 1020.4 0.0
17/06:30am 3.1 0.3 2.1 93 0.4 SSE 6 7 3 4 1020.8 1020.1 0.0
17/06:00am 3.3 1.3 2.1 92 0.5 SSE 2 4 1 2 1020.3 1019.6 0.0
17/05:30am 3.4 1.0 2.2 92 0.5 S 4 6 2 3 1020.2 1019.5 0.0
17/05:00am 3.5 1.1 2.3 92 0.5 SSW 4 4 2 2 1019.9 1019.2 0.0
17/04:30am 3.8 1.8 2.3 90 0.6 SSW 2 2 1 1 1019.7 1019.0 0.0
17/04:00am 4.0 2.4 2.7 91 0.5 CALM 0 0 0 0 1019.5 1018.8 0.0
17/03:30am 4.3 2.7 2.7 89 0.7 CALM 0 0 0 0 1019.4 1018.7 0.0
17/03:00am 4.7 3.2 2.9 88 0.7 CALM 0 0 0 0 1019.4 1018.7 0.0
17/02:30am 5.2 3.7 3.2 87 0.8 CALM 0 2 0 1 1019.6 1018.9 0.0
17/02:00am 5.7 3.5 3.5 86 0.9 SE 4 6 2 3 1019.8 1019.1 0.0
17/01:30am 6.3 4.2 3.8 84 1.1 SE 4 4 2 2 1019.9 1019.2 0.0
17/01:00am 6.8 4.7 3.9 82 1.3 SSE 4 6 2 3 1019.8 1019.1 0.0
17/12:30am 7.4 5.4 4.2 80 1.4 SSE 4 4 2 2 1019.9 1019.2 0.0
17/12:00am 8.7 7.1 4.3 74 1.9 SE 2 4 1 2 1020.0 1019.3 0.0
 
Date/Time
CST
Temp
°C
App
Temp
°C
Dew
Point
°C
Rel
Hum
%
Delta-T
°C
Wind Press
QNH
hPa
Press
MSL
hPa
Rain since
9am
mm
Dir  Spd
km/h
Gust
km/h
Spd
kts
Gust
kts
16/11:30pm 10.6 8.5 3.9 63 3.0 SE 4 6 2 3 1020.1 1019.4 0.0
16/11:00pm 12.0 9.6 4.2 59 3.6 SE 6 6 3 3 1020.2 1019.5 0.0
16/10:30pm 13.3 10.9 4.2 54 4.2 ESE 6 6 3 3 1020.3 1019.6 0.0
16/10:00pm 15.0 12.6 4.1 48 5.1 ESE 6 7 3 4 1020.1 1019.4 0.0
16/09:30pm 16.6 14.0 4.3 44 5.8 SE 7 13 4 7 1020.0 1019.3 0.0
16/09:00pm 16.6 14.1 4.9 46 5.6 SE 7 11 4 6 1019.7 1019.0 0.0
16/08:30pm 17.7 15.2 5.0 43 6.1 SSE 7 11 4 6 1019.3 1018.6 0.0
16/08:00pm 18.2 15.8 5.1 42 6.4 SSE 7 9 4 5 1018.8 1018.1 0.0
16/07:30pm 19.2 16.9 4.6 38 7.1 SSE 6 9 3 5 1018.2 1017.6 0.0
16/07:00pm 20.3 17.7 4.4 35 7.8 SSE 7 9 4 5 1017.7 1017.1 0.0
16/06:30pm 21.8 19.2 4.4 32 8.6 SSE 7 11 4 6 1017.4 1016.7 0.0
16/06:00pm 23.5 19.8 4.5 29 9.5 SSE 13 26 7 14 1017.2 1016.5 0.0
16/05:30pm 24.6 20.1 4.4 27 10.1 SSE 17 30 9 16 1016.9 1016.2 0.0
16/05:00pm 25.2 21.1 4.3 26 10.5 SSE 15 32 8 17 1016.5 1015.8 0.0
16/04:30pm 25.9 21.9 4.9 26 10.7 SSE 15 28 8 15 1016.3 1015.6 0.0
16/04:00pm 26.2 21.9 5.2 26 10.8 SSE 17 28 9 15 1016.3 1015.6 0.0
16/03:30pm 26.1 21.4 5.1 26 10.8 SE 19 28 10 15 1016.3 1015.6 0.0
16/03:00pm 26.7 23.4 6.2 27 10.8 SSE 13 26 7 14 1016.3 1015.6 0.0
16/02:30pm 26.6 22.9 6.1 27 10.7 SE 15 24 8 13 1016.8 1016.1 0.0
16/02:00pm 25.8 21.5 5.4 27 10.5 SE 17 28 9 15 1017.0 1016.3 0.0
16/01:30pm 26.1 22.1 5.1 26 10.8 ESE 15 26 8 14 1017.6 1016.9 0.0
16/01:00pm 25.7 21.6 4.2 25 10.8 SE 15 35 8 19 1018.1 1017.5 0.0
16/12:30pm 25.4 21.8 5.1 27 10.4 ESE 13 26 7 14 1018.7 1018.0 0.0
16/12:00pm 24.3 20.6 4.6 28 9.9 E 13 28 7 15 1019.3 1018.6 0.0
16/11:30am 24.2 20.1 4.6 28 9.8 ESE 15 28 8 15 1019.7 1019.0 0.0
16/11:00am 23.5 19.1 4.5 29 9.5 E 17 26 9 14 1020.0 1019.3 0.0
16/10:30am 22.5 18.4 4.1 30 9.0 SE 15 24 8 13 1020.3 1019.6 0.0
16/10:00am 21.3 17.1 4.0 32 8.4 SE 15 24 8 13 1020.3 1019.6 0.0
16/09:30am 20.0 15.8 3.7 34 7.8 ESE 15 20 8 11 1020.1 1019.4 0.0
16/09:00am 18.6 14.8 4.0 38 7.0 ESE 13 19 7 10 1020.0 1019.3 0.0
16/08:30am 17.3 13.5 3.9 41 6.3 ESE 13 19 7 10 1019.5 1018.8 0.0
16/08:00am 14.4 12.2 5.2 54 4.4 SE 6 9 3 5 1019.0 1018.3 0.0
16/07:30am 12.0 10.0 6.1 67 2.8 SE 6 6 3 3 1018.7 1018.0 0.0
16/07:00am 13.0 10.4 4.4 56 4.0 SE 7 9 4 5 1018.4 1017.8 0.0
16/06:30am 12.1 9.8 4.8 61 3.4 ESE 6 9 3 5 1018.0 1017.4 0.0
16/06:00am 10.7 8.5 5.3 69 2.5 ESE 6 9 3 5 1017.6 1016.9 0.0
16/05:30am 11.0 9.1 4.9 66 2.8 ESE 4 6 2 3 1017.8 1017.2 0.0
16/05:00am 13.1 10.8 4.8 57 3.9 SE 6 6 3 3 1017.8 1017.2 0.0
16/04:30am 14.1 11.6 4.7 53 4.4 SE 7 9 4 5 1017.5 1016.8 0.0
16/04:00am 14.3 11.8 4.9 53 4.4 SE 7 13 4 7 1017.5 1016.8 0.0
16/03:30am 14.1 11.6 4.9 54 4.3 SE 7 9 4 5 1017.5 1016.8 0.0
16/03:00am 13.8 11.4 5.4 57 4.0 SE 7 11 4 6 1017.4 1016.7 0.0
16/02:30am 11.9 9.9 6.2 68 2.7 SE 6 7 3 4 1017.3 1016.6 0.0
16/02:00am 12.1 10.2 6.6 69 2.6 SE 6 6 3 3 1017.2 1016.5 0.0
16/01:30am 12.7 10.8 6.7 67 2.9 SSE 6 6 3 3 1017.2 1016.5 0.0
16/01:00am 13.2 11.3 6.5 64 3.2 SSE 6 6 3 3 1017.2 1016.5 0.0
16/12:30am 13.8 11.9 6.7 62 3.5 SE 6 6 3 3 1017.1 1016.4 0.0
16/12:00am 15.1 13.2 6.7 57 4.1 SSE 6 9 3 5 1017.0 1016.3 0.0
 
Date/Time
CST
Temp
°C
App
Temp
°C
Dew
Point
°C
Rel
Hum
%
Delta-T
°C
Wind Press
QNH
hPa
Press
MSL
hPa
Rain since
9am
mm
Dir  Spd
km/h
Gust
km/h
Spd
kts
Gust
kts
15/11:30pm 15.5 13.6 6.8 56 4.3 SSE 6 7 3 4 1016.8 1016.1 0.0
15/11:00pm 16.7 14.6 6.8 52 4.9 SSE 7 11 4 6 1016.8 1016.1 0.0
15/10:30pm 16.7 14.8 7.6 55 4.6 SE 7 9 4 5 1016.9 1016.2 0.0
15/10:00pm 16.4 14.8 8.1 58 4.2 SSE 6 9 3 5 1016.8 1016.1 0.0
15/09:30pm 17.5 15.7 8.1 54 4.8 SE 7 9 4 5 1016.6 1015.9 0.0
15/09:00pm 17.8 16.3 8.6 55 4.8 SSE 6 9 3 5 1016.0 1015.3 0.0
15/08:30pm 18.5 16.9 8.7 53 5.1 SE 7 13 4 7 1015.5 1014.8 0.0
15/08:00pm 15.8 14.3 9.2 65 3.4 SE 7 9 4 5 1015.1 1014.4 0.0
15/07:30pm 15.9 15.1 9.6 66 3.3 SSE 4 6 2 3 1014.5 1013.8 0.0
15/07:00pm 17.8 17.3 9.4 58 4.4 SE 2 4 1 2 1014.0 1013.3 0.0
15/06:30pm 21.0 20.1 9.3 47 6.3 SE 4 6 2 3 1013.6 1012.8 0.0
15/06:00pm 24.4 23.0 8.8 37 8.5 SE 6 9 3 5 1013.1 1012.4 0.0
15/05:30pm 25.9 23.8 8.4 33 9.5 SE 9 19 5 10 1012.8 1012.1 0.0
15/05:00pm 26.7 24.7 8.6 32 9.9 SE 9 20 5 11 1012.6 1011.9 0.0

Other formats

Comma delimited format used in spreadsheet applications
http://www.bom.gov.au/fwo/IDD60801/IDD60801.94234.axf

JavaScript Object Notation format (JSON) in row-major order
http://www.bom.gov.au/fwo/IDD60801/IDD60801.94234.json

Data quality

Most of these data are generated automatically and are frequently updated. Quality checks on data are not normally performed. It is possible for incorrect values to appear. Refer to information at About Latest Weather Observations and please check the disclaimer before using these data.